Aeneas — 3FWY9 — position and weather

sailwx.info

Track history (hours):
 
Tides and Currents Weather Stations Pressure Air Temp Water Temp Dewpoint Dewpoint Depression Visibility Wind Speed Wind Dir Waves Ship Positions

Aeneas

Last reported at 2018-Apr-23 02:19 UTC. Time now 2018-Apr-26 01:31 UTC.
Position N 37°04' E 004°60'.

Length 225 m; draft 12.5 m.

Type: Cargo ship. MMSI: 372355000.

Date/timePositionNaut miles runAvg speedWind from/ knotsBaromVisibWave heightAir tempDewpointWater temp
2018-Apr-23 02:19N 37°04' E 004°60'711.0
2018-Apr-23 01:41N 37°06' E 004°51'211.2
2018-Apr-23 01:29N 37°06' E 004°48'511.1
2018-Apr-23 01:00N 37°06' E 004°42'611.5
2018-Apr-23 00:30N 37°07' E 004°34'712.2
2018-Apr-22 23:56N 37°07' E 004°26'512.3
2018-Apr-22 23:30N 37°07' E 004°19'2011.7
2018-Apr-22 21:49N 37°07' E 003°54'411.5
2018-Apr-22 21:28N 37°07' E 003°49'611.5
2018-Apr-22 20:56N 37°07' E 003°42'16211.5
2018-Apr-22 06:48N 36°41' E 000°21'27110.9
2018-Apr-21 06:04N 36°01' W 005°11'112.8
2018-Apr-21 05:59N 36°01' W 005°12'612.6
2018-Apr-21 05:30N 35°59' W 005°19'611.8
2018-Apr-21 05:00N 35°57' W 005°26'  
Track history (hours):
 
Tides and Currents Weather Stations Pressure Air Temp Water Temp Dewpoint Dewpoint Depression Visibility Wind Speed Wind Dir Waves Ship Positions

Aeneas

Last reported at 2018-Apr-23 02:19 UTC. Time now 2018-Apr-26 01:31 UTC.
Position N 37°04' E 004°60'.

Length 225 m; draft 12.5 m.

Type: Cargo ship. MMSI: 372355000.

Date/timePositionNaut miles runAvg speedWind from/ knotsBaromVisibWave heightAir tempDewpointWater temp
2018-Apr-23 02:19N 37°04' E 004°60'711.0
2018-Apr-23 01:41N 37°06' E 004°51'211.2
2018-Apr-23 01:29N 37°06' E 004°48'511.1
2018-Apr-23 01:00N 37°06' E 004°42'611.5
2018-Apr-23 00:30N 37°07' E 004°34'712.2
2018-Apr-22 23:56N 37°07' E 004°26'512.3
2018-Apr-22 23:30N 37°07' E 004°19'2011.7
2018-Apr-22 21:49N 37°07' E 003°54'411.5
2018-Apr-22 21:28N 37°07' E 003°49'611.5
2018-Apr-22 20:56N 37°07' E 003°42'16211.5
2018-Apr-22 06:48N 36°41' E 000°21'27110.9
2018-Apr-21 06:04N 36°01' W 005°11'112.8
2018-Apr-21 05:59N 36°01' W 005°12'612.6
2018-Apr-21 05:30N 35°59' W 005°19'611.8
2018-Apr-21 05:00N 35°57' W 005°26'  

Dump ship's entire track history